createdAt,value
2023-03-08T00:00:27.342Z,0.00
2023-03-08T00:01:27.333Z,0.00
2023-03-08T00:02:27.337Z,0.00
2023-03-08T00:03:27.375Z,0.00
2023-03-08T00:04:27.448Z,0.00
2023-03-08T00:05:27.293Z,0.00
2023-03-08T00:06:27.305Z,0.00
2023-03-08T00:07:27.268Z,0.00
2023-03-08T00:08:27.252Z,0.00
2023-03-08T00:09:27.321Z,0.00
2023-03-08T00:10:27.225Z,0.00
2023-03-08T00:11:27.256Z,0.00
2023-03-08T00:12:27.202Z,0.00
2023-03-08T00:13:27.234Z,0.00
2023-03-08T00:14:27.166Z,0.00
2023-03-08T00:15:27.242Z,0.00
2023-03-08T00:16:27.292Z,0.00
2023-03-08T00:17:27.150Z,0.00
2023-03-08T00:18:27.127Z,0.00
2023-03-08T00:19:27.165Z,0.00
2023-03-08T00:20:27.110Z,0.00
2023-03-08T00:21:27.132Z,0.00
2023-03-08T00:22:27.088Z,0.00
2023-03-08T00:23:27.096Z,0.00
2023-03-08T00:24:27.065Z,0.00
2023-03-08T00:25:27.065Z,0.00
2023-03-08T00:26:27.099Z,0.00
2023-03-08T00:27:27.067Z,0.00
2023-03-08T00:28:27.071Z,0.00
2023-03-08T00:29:27.091Z,0.00
2023-03-08T00:30:27.014Z,0.00
2023-03-08T00:31:27.058Z,0.00
2023-03-08T00:32:27.030Z,0.00
2023-03-08T00:33:27.028Z,0.00
2023-03-08T00:34:26.964Z,0.00
2023-03-08T00:35:27.000Z,0.00
2023-03-08T00:36:26.990Z,0.00
2023-03-08T00:37:26.960Z,0.00
2023-03-08T00:38:26.917Z,0.00
2023-03-08T00:39:26.933Z,0.00
2023-03-08T00:40:26.899Z,0.00
2023-03-08T00:41:26.890Z,0.00
2023-03-08T00:42:26.860Z,0.00
2023-03-08T00:43:26.881Z,0.00
2023-03-08T00:44:26.840Z,0.00
2023-03-08T00:45:26.861Z,0.00
2023-03-08T00:46:26.828Z,0.00
2023-03-08T00:47:26.829Z,0.00
2023-03-08T00:48:26.778Z,0.00
2023-03-08T00:49:26.818Z,0.00
2023-03-08T00:50:27.290Z,0.00
2023-03-08T00:51:27.317Z,0.00
2023-03-08T00:52:26.759Z,0.00
2023-03-08T00:53:26.771Z,0.00
2023-03-08T00:54:26.740Z,0.00
2023-03-08T00:55:26.743Z,0.00
2023-03-08T00:56:26.742Z,0.00
2023-03-08T00:57:26.741Z,0.00
2023-03-08T00:58:26.687Z,0.00
2023-03-08T00:59:26.703Z,0.00
2023-03-08T01:00:26.687Z,0.00
2023-03-08T01:01:26.989Z,0.00
2023-03-08T01:02:26.638Z,0.00
2023-03-08T01:03:26.660Z,0.00
2023-03-08T01:04:26.618Z,0.00
2023-03-08T01:05:26.636Z,0.00
2023-03-08T01:06:26.610Z,0.00
2023-03-08T01:07:26.612Z,0.00
2023-03-08T01:08:26.587Z,0.00
2023-03-08T01:09:26.579Z,0.00
2023-03-08T01:10:26.571Z,0.00
2023-03-08T01:11:26.555Z,0.00
2023-03-08T01:12:26.528Z,0.00
2023-03-08T01:13:26.535Z,0.00
2023-03-08T01:14:26.520Z,0.00
2023-03-08T01:15:26.528Z,0.00
2023-03-08T01:16:26.493Z,0.00
2023-03-08T01:17:26.487Z,0.00
2023-03-08T01:18:26.561Z,0.00
2023-03-08T01:19:26.590Z,0.00
2023-03-08T01:20:26.451Z,0.00
2023-03-08T01:21:26.477Z,0.00
2023-03-08T01:22:26.428Z,0.00
2023-03-08T01:23:26.427Z,0.00
2023-03-08T01:24:26.408Z,0.00
2023-03-08T01:25:26.416Z,0.00
2023-03-08T01:26:26.424Z,0.00
2023-03-08T01:27:26.414Z,0.00
2023-03-08T01:28:26.363Z,0.00
2023-03-08T01:29:26.369Z,0.00
2023-03-08T01:30:26.336Z,0.00
2023-03-08T01:31:26.352Z,0.00
2023-03-08T01:32:26.358Z,0.00
2023-03-08T01:33:26.332Z,0.00
2023-03-08T01:34:26.288Z,0.00
2023-03-08T01:35:26.302Z,0.00
2023-03-08T01:36:26.271Z,0.00
2023-03-08T01:37:26.288Z,0.00
2023-03-08T01:38:26.231Z,0.00
2023-03-08T01:39:26.621Z,0.00
2023-03-08T01:40:26.610Z,0.00
2023-03-08T01:41:26.221Z,0.00
2023-03-08T01:42:26.193Z,0.00
2023-03-08T01:43:26.211Z,0.00
2023-03-08T01:44:26.181Z,0.00
2023-03-08T01:45:26.197Z,0.00
2023-03-08T01:46:26.167Z,0.00
2023-03-08T01:47:26.220Z,0.00
2023-03-08T01:48:26.121Z,0.00
2023-03-08T01:49:26.162Z,0.00
2023-03-08T01:50:26.110Z,0.00
2023-03-08T01:51:26.182Z,0.00
2023-03-08T01:52:26.085Z,0.00
2023-03-08T01:53:26.089Z,0.00
2023-03-08T01:54:26.076Z,0.00
2023-03-08T01:55:26.076Z,0.00
2023-03-08T01:56:26.038Z,0.00
2023-03-08T01:57:26.121Z,0.00
2023-03-08T01:58:26.005Z,0.00
2023-03-08T01:59:26.016Z,0.00
2023-03-08T02:00:25.992Z,0.00
2023-03-08T02:01:26.087Z,0.00
2023-03-08T02:02:28.259Z,0.00
2023-03-08T02:03:25.970Z,0.00
2023-03-08T02:04:25.935Z,0.00
2023-03-08T02:05:25.991Z,0.00
2023-03-08T02:06:25.941Z,0.00
2023-03-08T02:07:25.949Z,0.00
2023-03-08T02:08:25.914Z,0.00
2023-03-08T02:09:25.929Z,0.00
2023-03-08T02:10:25.898Z,0.00
2023-03-08T02:11:25.929Z,0.00
2023-03-08T02:12:25.869Z,0.00
2023-03-08T02:13:25.867Z,0.00
2023-03-08T02:14:25.828Z,0.00
2023-03-08T02:15:25.848Z,0.00
2023-03-08T02:16:26.139Z,0.00
2023-03-08T02:17:25.843Z,0.00
2023-03-08T02:18:25.799Z,0.00
2023-03-08T02:19:25.810Z,0.00
2023-03-08T02:20:25.768Z,0.00
2023-03-08T02:21:25.808Z,0.00
2023-03-08T02:22:25.778Z,0.00
2023-03-08T02:23:25.764Z,0.00
2023-03-08T02:24:25.728Z,0.00
2023-03-08T02:25:25.738Z,0.00
2023-03-08T02:26:25.737Z,0.00
2023-03-08T02:27:25.747Z,0.00
2023-03-08T02:28:25.698Z,0.00
2023-03-08T02:29:25.694Z,0.00
2023-03-08T02:30:25.671Z,0.00
2023-03-08T02:31:25.707Z,0.00
2023-03-08T02:32:26.116Z,0.00
2023-03-08T02:33:25.664Z,0.00
2023-03-08T02:34:25.618Z,0.00
2023-03-08T02:35:25.638Z,0.00
2023-03-08T02:36:25.590Z,0.00
2023-03-08T02:37:25.662Z,0.00
2023-03-08T02:38:25.581Z,0.00
2023-03-08T02:39:25.600Z,0.00
2023-03-08T02:40:25.566Z,0.00
2023-03-08T02:41:25.631Z,0.00
2023-03-08T02:42:25.535Z,0.00
2023-03-08T02:43:25.538Z,0.00
2023-03-08T02:44:25.569Z,0.00
2023-03-08T02:45:25.527Z,0.00
2023-03-08T02:46:25.481Z,0.00
2023-03-08T02:47:25.500Z,0.00
2023-03-08T02:48:25.662Z,0.00
2023-03-08T02:49:25.476Z,0.00
2023-03-08T02:50:25.437Z,0.00
2023-03-08T02:51:25.446Z,0.00
2023-03-08T02:52:25.427Z,0.00
2023-03-08T02:53:25.438Z,0.00
2023-03-08T02:54:25.415Z,0.00
2023-03-08T02:55:25.416Z,0.00
2023-03-08T02:56:25.367Z,0.00
2023-03-08T02:57:25.407Z,0.00
2023-03-08T02:58:25.360Z,0.00
2023-03-08T02:59:25.369Z,0.00
2023-03-08T03:00:25.344Z,0.00
2023-03-08T03:01:25.386Z,0.00
2023-03-08T03:02:25.306Z,0.00
2023-03-08T03:03:25.329Z,0.00
2023-03-08T03:04:25.308Z,0.00
2023-03-08T03:05:25.306Z,0.00
2023-03-08T03:06:25.339Z,0.00
2023-03-08T03:07:25.301Z,0.00
2023-03-08T03:08:25.290Z,0.00
2023-03-08T03:09:25.265Z,0.00
2023-03-08T03:10:25.232Z,0.00
2023-03-08T03:11:25.221Z,0.00
2023-03-08T03:12:25.215Z,0.00
2023-03-08T03:13:25.326Z,0.00
2023-03-08T03:14:25.171Z,0.00
2023-03-08T03:15:25.192Z,0.00
2023-03-08T03:16:25.155Z,0.00
2023-03-08T03:17:25.167Z,0.00
2023-03-08T03:18:25.126Z,0.00
2023-03-08T03:19:25.149Z,0.00
2023-03-08T03:20:25.119Z,0.00
2023-03-08T03:21:25.177Z,0.00
2023-03-08T03:22:25.077Z,0.00
2023-03-08T03:23:25.091Z,0.00
2023-03-08T03:24:25.101Z,0.00
2023-03-08T03:25:25.077Z,0.00
2023-03-08T03:26:25.032Z,0.00
2023-03-08T03:27:25.051Z,0.00
2023-03-08T03:28:24.996Z,0.00
2023-03-08T03:29:25.012Z,0.00
2023-03-08T03:30:25.066Z,0.00
2023-03-08T03:31:25.223Z,0.00
2023-03-08T03:32:25.005Z,0.00
2023-03-08T03:33:24.971Z,0.00
2023-03-08T03:34:24.931Z,0.00
2023-03-08T03:35:25.006Z,0.00
2023-03-08T03:36:24.930Z,0.00
2023-03-08T03:37:24.949Z,0.00
2023-03-08T03:38:24.902Z,0.00
2023-03-08T03:39:24.980Z,0.00
2023-03-08T03:40:24.892Z,0.00
2023-03-08T03:41:25.010Z,0.00
2023-03-08T03:42:25.124Z,0.00
2023-03-08T03:43:25.231Z,0.00
2023-03-08T03:44:24.825Z,0.00
2023-03-08T03:45:24.868Z,0.00
2023-03-08T03:46:24.856Z,0.00
2023-03-08T03:47:24.848Z,0.00
2023-03-08T03:48:25.246Z,0.00
2023-03-08T03:49:24.793Z,0.00
2023-03-08T03:50:24.776Z,0.00
2023-03-08T03:51:24.784Z,0.00
2023-03-08T03:52:24.754Z,0.00
2023-03-08T03:53:24.887Z,0.00
2023-03-08T03:54:24.726Z,0.00
2023-03-08T03:55:24.725Z,0.00
2023-03-08T03:56:24.794Z,0.00
2023-03-08T03:57:24.730Z,0.00
2023-03-08T03:58:24.699Z,0.00
2023-03-08T03:59:26.639Z,0.00
2023-03-08T04:00:24.669Z,0.00
2023-03-08T04:01:24.743Z,0.00
2023-03-08T04:02:24.734Z,0.00
2023-03-08T04:03:24.835Z,0.00
2023-03-08T04:04:24.616Z,0.00
2023-03-08T04:05:24.644Z,0.00
2023-03-08T04:06:24.613Z,0.00
2023-03-08T04:07:24.620Z,0.00
2023-03-08T04:08:24.573Z,0.00
2023-03-08T04:09:24.604Z,0.00
2023-03-08T04:10:24.548Z,0.00
2023-03-08T04:11:24.592Z,0.00
2023-03-08T04:12:24.542Z,0.00
2023-03-08T04:13:24.538Z,0.00
2023-03-08T04:14:24.516Z,0.00
2023-03-08T04:15:24.548Z,0.00
2023-03-08T04:16:24.684Z,0.00
2023-03-08T04:17:24.510Z,0.00
2023-03-08T04:18:24.451Z,0.00
2023-03-08T04:19:24.476Z,0.00
2023-03-08T04:20:26.265Z,0.00
2023-03-08T04:21:24.675Z,0.00
2023-03-08T04:22:24.419Z,0.00
2023-03-08T04:23:24.696Z,0.00
2023-03-08T04:24:24.420Z,0.00
2023-03-08T04:25:24.389Z,0.00
2023-03-08T04:26:24.385Z,0.00
2023-03-08T04:27:24.395Z,0.00
2023-03-08T04:28:24.741Z,0.00
2023-03-08T04:29:24.336Z,0.00
2023-03-08T04:30:24.344Z,0.00
2023-03-08T04:31:24.534Z,0.00
2023-03-08T04:32:24.365Z,0.00
2023-03-08T04:33:24.297Z,0.00
2023-03-08T04:34:24.303Z,0.00
2023-03-08T04:35:24.552Z,0.00
2023-03-08T04:36:24.273Z,0.00
2023-03-08T04:37:24.271Z,0.00
2023-03-08T04:38:24.288Z,0.00
2023-03-08T04:39:24.221Z,0.00
2023-03-08T04:40:24.232Z,0.00
2023-03-08T04:41:24.196Z,0.00
2023-03-08T04:42:24.216Z,0.00
2023-03-08T04:43:24.314Z,0.00
2023-03-08T04:44:24.237Z,0.00
2023-03-08T04:45:24.171Z,0.00
2023-03-08T04:46:24.212Z,0.00
2023-03-08T04:47:24.145Z,0.00
2023-03-08T04:48:26.405Z,0.00
2023-03-08T04:49:24.145Z,0.00
2023-03-08T04:50:24.135Z,0.00
2023-03-08T04:51:24.105Z,0.00
2023-03-08T04:52:24.103Z,0.00
2023-03-08T04:53:24.093Z,0.00
2023-03-08T04:54:24.084Z,0.00
2023-03-08T04:55:24.062Z,0.00
2023-03-08T04:56:24.063Z,0.00
2023-03-08T04:57:24.030Z,0.00
2023-03-08T04:58:24.029Z,0.00
2023-03-08T04:59:24.001Z,0.00
2023-03-08T05:00:24.015Z,0.00
2023-03-08T05:01:24.007Z,0.00
2023-03-08T05:02:24.084Z,0.00
2023-03-08T05:03:23.958Z,0.00
2023-03-08T05:04:24.153Z,0.00
2023-03-08T05:05:24.358Z,0.00
2023-03-08T05:06:23.959Z,0.00
2023-03-08T05:07:23.931Z,0.00
2023-03-08T05:08:23.950Z,0.00
2023-03-08T05:09:23.901Z,0.00
2023-03-08T05:10:23.903Z,0.00
2023-03-08T05:11:23.864Z,0.00
2023-03-08T05:12:24.206Z,0.00
2023-03-08T05:13:23.887Z,0.00
2023-03-08T05:14:23.861Z,0.00
2023-03-08T05:15:23.912Z,0.00
2023-03-08T05:16:23.899Z,0.00
2023-03-08T05:17:23.810Z,0.00
2023-03-08T05:18:23.829Z,0.00
2023-03-08T05:19:23.790Z,0.00
2023-03-08T05:20:23.801Z,0.00
2023-03-08T05:21:23.757Z,0.00
2023-03-08T05:22:23.770Z,0.00
2023-03-08T05:23:23.726Z,0.00
2023-03-08T05:24:23.746Z,0.00
2023-03-08T05:25:23.763Z,0.00
2023-03-08T05:26:23.750Z,0.00
2023-03-08T05:27:23.708Z,0.00
2023-03-08T05:28:23.695Z,0.00
2023-03-08T05:29:23.667Z,0.00
2023-03-08T05:30:23.698Z,0.00
2023-03-08T05:31:23.688Z,0.00
2023-03-08T05:32:23.701Z,0.00
2023-03-08T05:33:23.612Z,0.00
2023-03-08T05:34:23.627Z,0.00
2023-03-08T05:35:23.606Z,0.00
2023-03-08T05:36:23.655Z,0.00
2023-03-08T05:37:25.385Z,0.00
2023-03-08T05:38:23.605Z,4.00
2023-03-08T05:39:23.561Z,4.00
2023-03-08T05:40:23.555Z,0.00
2023-03-08T05:41:23.538Z,4.00
2023-03-08T05:42:23.533Z,4.00
2023-03-08T05:43:23.629Z,4.00
2023-03-08T05:44:23.525Z,8.00
2023-03-08T05:45:23.545Z,4.00
2023-03-08T05:46:23.544Z,8.00
2023-03-08T05:47:23.468Z,8.00
2023-03-08T05:48:23.470Z,8.00
2023-03-08T05:49:23.443Z,12.00
2023-03-08T05:50:23.451Z,12.00
2023-03-08T05:51:23.409Z,12.00
2023-03-08T05:52:23.466Z,20.00
2023-03-08T05:53:23.381Z,20.00
2023-03-08T05:54:23.400Z,20.00
2023-03-08T05:55:23.382Z,24.00
2023-03-08T05:56:23.428Z,24.00
2023-03-08T05:57:23.365Z,28.00
2023-03-08T05:58:23.373Z,32.00
2023-03-08T05:59:23.316Z,36.00
2023-03-08T06:00:23.349Z,36.00
2023-03-08T06:01:23.317Z,44.00
2023-03-08T06:02:23.399Z,44.00
2023-03-08T06:03:23.349Z,48.00
2023-03-08T06:04:23.307Z,52.00
2023-03-08T06:05:23.255Z,60.00
2023-03-08T06:06:23.254Z,64.00
2023-03-08T06:07:23.271Z,76.00
2023-03-08T06:08:23.285Z,84.00
2023-03-08T06:09:23.222Z,88.00
2023-03-08T06:10:23.240Z,96.00
2023-03-08T06:11:23.185Z,104.00
2023-03-08T06:12:23.222Z,112.00
2023-03-08T06:13:23.183Z,112.00
2023-03-08T06:14:23.192Z,112.00
2023-03-08T06:15:23.163Z,112.00
2023-03-08T06:16:23.175Z,116.00
2023-03-08T06:17:23.169Z,128.00
2023-03-08T06:18:23.124Z,132.00
2023-03-08T06:19:23.109Z,148.00
2023-03-08T06:20:23.103Z,156.00
2023-03-08T06:21:23.081Z,164.00
2023-03-08T06:22:23.089Z,164.00
2023-03-08T06:23:23.116Z,168.00
2023-03-08T06:24:23.073Z,168.00
2023-03-08T06:25:23.048Z,168.00
2023-03-08T06:26:23.283Z,172.00
2023-03-08T06:27:23.018Z,180.00
2023-03-08T06:28:23.071Z,188.00
2023-03-08T06:29:23.010Z,196.00
2023-03-08T06:30:23.005Z,208.00
2023-03-08T06:31:22.985Z,228.00
2023-03-08T06:32:23.080Z,236.00
2023-03-08T06:33:22.982Z,248.00
2023-03-08T06:34:22.959Z,260.00
2023-03-08T06:35:23.029Z,272.00
2023-03-08T06:36:22.941Z,280.00
2023-03-08T06:37:23.016Z,288.00
2023-03-08T06:38:22.932Z,288.00
2023-03-08T06:39:22.874Z,292.00
2023-03-08T06:40:22.894Z,300.00
2023-03-08T06:41:22.896Z,324.00
2023-03-08T06:42:38.239Z,328.00
2023-03-08T06:43:23.865Z,344.00
2023-03-08T06:44:22.918Z,360.00
2023-03-08T06:45:22.825Z,368.00
2023-03-08T06:46:22.971Z,396.00
2023-03-08T06:47:22.813Z,416.00
2023-03-08T06:48:22.844Z,436.00
2023-03-08T06:49:22.792Z,452.00
2023-03-08T06:50:22.828Z,452.00
2023-03-08T06:51:22.759Z,460.00
2023-03-08T06:52:22.761Z,472.00
2023-03-08T06:53:22.746Z,472.00
2023-03-08T06:54:22.748Z,480.00
2023-03-08T06:55:22.713Z,488.00
2023-03-08T06:56:22.741Z,492.00
2023-03-08T06:57:22.700Z,488.00
2023-03-08T06:58:22.906Z,472.00
2023-03-08T06:59:22.664Z,484.00
2023-03-08T07:00:22.691Z,476.00
2023-03-08T07:01:22.681Z,468.00
2023-03-08T07:02:22.725Z,496.00
2023-03-08T07:03:22.633Z,504.00
2023-03-08T07:04:22.640Z,492.00
2023-03-08T07:05:22.606Z,492.00
2023-03-08T07:06:22.657Z,504.00
2023-03-08T07:07:22.900Z,488.00
2023-03-08T07:08:22.597Z,476.00
2023-03-08T07:09:22.558Z,472.00
2023-03-08T07:10:22.549Z,476.00
2023-03-08T07:11:22.548Z,476.00
2023-03-08T07:12:22.532Z,488.00
2023-03-08T07:13:22.504Z,484.00
2023-03-08T07:14:22.566Z,480.00
2023-03-08T07:15:22.500Z,480.00
2023-03-08T07:16:22.502Z,468.00
2023-03-08T07:17:22.477Z,476.00
2023-03-08T07:18:22.526Z,488.00
2023-03-08T07:19:22.461Z,520.00
2023-03-08T07:20:22.457Z,536.00
2023-03-08T07:21:22.433Z,552.00
2023-03-08T07:22:22.436Z,548.00
2023-03-08T07:23:22.398Z,572.00
2023-03-08T07:24:22.402Z,584.00
2023-03-08T07:25:22.381Z,576.00
2023-03-08T07:26:22.409Z,600.00
2023-03-08T07:27:22.345Z,648.00
2023-03-08T07:28:22.365Z,720.00
2023-03-08T07:29:22.314Z,824.00
2023-03-08T07:30:22.356Z,896.00
2023-03-08T07:31:22.322Z,944.00
2023-03-08T07:32:22.414Z,956.00
2023-03-08T07:33:22.283Z,948.00
2023-03-08T07:34:22.409Z,952.00
2023-03-08T07:35:22.258Z,956.00
2023-03-08T07:36:22.280Z,952.00
2023-03-08T07:37:22.249Z,952.00
2023-03-08T07:38:22.466Z,940.00
2023-03-08T07:39:22.216Z,948.00
2023-03-08T07:40:22.230Z,920.00
2023-03-08T07:41:22.239Z,932.00
2023-03-08T07:42:22.207Z,944.00
2023-03-08T07:43:22.169Z,964.00
2023-03-08T07:44:22.211Z,996.00
2023-03-08T07:45:22.154Z,1076.00
2023-03-08T07:46:22.188Z,1148.00
2023-03-08T07:47:22.128Z,1184.00
2023-03-08T07:48:22.233Z,1168.00
2023-03-08T07:49:22.109Z,1152.00
2023-03-08T07:50:22.117Z,1152.00
2023-03-08T07:51:22.116Z,1196.00
2023-03-08T07:52:22.162Z,1236.00
2023-03-08T07:53:22.090Z,1216.00
2023-03-08T07:54:22.686Z,1216.00
2023-03-08T07:55:22.084Z,1120.00
2023-03-08T07:56:22.056Z,1064.00
2023-03-08T07:57:22.036Z,1028.00
2023-03-08T07:58:22.024Z,1068.00
2023-03-08T07:59:21.997Z,1148.00
2023-03-08T08:00:22.008Z,1236.00
2023-03-08T08:01:21.966Z,1292.00
2023-03-08T08:02:21.999Z,1312.00
2023-03-08T08:03:22.005Z,1328.00
2023-03-08T08:04:21.982Z,1348.00
2023-03-08T08:05:22.051Z,1332.00
2023-03-08T08:06:21.949Z,1244.00
2023-03-08T08:07:21.946Z,1180.00
2023-03-08T08:08:21.952Z,1168.00
2023-03-08T08:09:21.907Z,1120.00
2023-03-08T08:10:21.922Z,1132.00
2023-03-08T08:11:21.891Z,1028.00
2023-03-08T08:12:21.872Z,996.00
2023-03-08T08:13:21.983Z,1048.00
2023-03-08T08:14:21.881Z,1088.00
2023-03-08T08:15:21.815Z,1084.00
2023-03-08T08:16:21.847Z,1080.00
2023-03-08T08:17:21.877Z,1124.00
2023-03-08T08:18:21.801Z,1160.00
2023-03-08T08:19:22.016Z,1228.00
2023-03-08T08:20:21.822Z,1280.00
2023-03-08T08:21:21.751Z,1268.00
2023-03-08T08:22:21.753Z,1264.00
2023-03-08T08:23:21.719Z,1316.00
2023-03-08T08:24:21.743Z,1316.00
2023-03-08T08:25:21.713Z,1280.00
2023-03-08T08:26:21.702Z,1260.00
2023-03-08T08:27:21.681Z,1304.00
2023-03-08T08:28:21.690Z,1312.00
2023-03-08T08:29:21.656Z,1304.00
2023-03-08T08:30:21.680Z,1292.00
2023-03-08T08:31:21.710Z,1336.00
2023-03-08T08:32:21.675Z,1344.00
2023-03-08T08:33:21.588Z,1396.00
2023-03-08T08:34:21.629Z,1460.00
2023-03-08T08:35:23.946Z,1560.00
2023-03-08T08:36:22.616Z,1620.00
2023-03-08T08:37:21.588Z,1688.00
2023-03-08T08:38:21.567Z,1664.00
2023-03-08T08:39:21.568Z,1612.00
2023-03-08T08:40:21.751Z,1536.00
2023-03-08T08:41:21.528Z,1460.00
2023-03-08T08:42:21.516Z,1392.00
2023-03-08T08:43:21.517Z,1352.00
2023-03-08T08:44:21.486Z,1292.00
2023-03-08T08:45:21.498Z,1228.00
2023-03-08T08:46:21.460Z,1152.00
2023-03-08T08:47:21.461Z,1088.00
2023-03-08T08:48:21.447Z,1076.00
2023-03-08T08:49:21.445Z,1072.00
2023-03-08T08:50:21.414Z,1104.00
2023-03-08T08:51:21.424Z,1152.00
2023-03-08T08:52:21.375Z,1188.00
2023-03-08T08:53:21.437Z,1240.00
2023-03-08T08:54:21.383Z,1364.00
2023-03-08T08:55:21.383Z,1532.00
2023-03-08T08:56:27.096Z,1688.00
2023-03-08T08:57:22.368Z,1856.00
2023-03-08T08:58:21.354Z,2004.00
2023-03-08T08:59:21.354Z,2104.00
2023-03-08T09:00:21.311Z,2220.00
2023-03-08T09:01:21.333Z,2292.00
2023-03-08T09:02:21.396Z,2416.00
2023-03-08T09:03:21.414Z,2540.00
2023-03-08T09:04:21.324Z,2660.00
2023-03-08T09:05:21.323Z,2880.00
2023-03-08T09:06:21.260Z,3024.00
2023-03-08T09:07:21.281Z,3116.00
2023-03-08T09:08:21.213Z,3020.00
2023-03-08T09:09:21.213Z,3048.00
2023-03-08T09:10:21.191Z,3084.00
2023-03-08T09:11:21.223Z,3052.00
2023-03-08T09:12:21.228Z,3048.00
2023-03-08T09:13:21.220Z,2976.00
2023-03-08T09:14:21.154Z,2852.00
2023-03-08T09:15:21.193Z,2788.00
2023-03-08T09:16:21.202Z,2740.00
2023-03-08T09:17:21.129Z,2636.00
2023-03-08T09:18:21.091Z,2568.00
2023-03-08T09:19:21.201Z,2572.00
2023-03-08T09:20:23.335Z,2568.00
2023-03-08T09:21:21.315Z,2552.00
2023-03-08T09:22:21.075Z,2556.00
2023-03-08T09:23:21.046Z,2512.00
2023-03-08T09:24:21.037Z,2524.00
2023-03-08T09:25:21.350Z,2552.00
2023-03-08T09:26:21.023Z,2572.00
2023-03-08T09:27:21.015Z,2564.00
2023-03-08T09:28:21.159Z,2608.00
2023-03-08T09:29:21.392Z,2628.00
2023-03-08T09:30:20.972Z,2896.00
2023-03-08T09:31:20.999Z,2988.00
2023-03-08T09:32:21.035Z,2984.00
2023-03-08T09:33:20.946Z,2952.00
2023-03-08T09:34:20.922Z,3108.00
2023-03-08T09:35:21.227Z,3272.00
2023-03-08T09:36:21.013Z,3284.00
2023-03-08T09:37:20.907Z,3164.00
2023-03-08T09:38:20.914Z,3180.00
2023-03-08T09:39:20.877Z,3136.00
2023-03-08T09:40:20.848Z,3148.00
2023-03-08T09:41:20.913Z,3088.00
2023-03-08T09:42:21.001Z,3240.00
2023-03-08T09:43:20.868Z,3328.00
2023-03-08T09:44:20.826Z,3472.00
2023-03-08T09:45:20.810Z,3576.00
2023-03-08T09:46:20.817Z,3660.00
2023-03-08T09:47:20.797Z,3684.00
2023-03-08T09:48:20.803Z,3888.00
2023-03-08T09:49:20.777Z,4088.00
2023-03-08T09:50:21.549Z,4268.00
2023-03-08T09:51:20.908Z,4248.00
2023-03-08T09:52:20.756Z,4236.00
2023-03-08T09:53:21.025Z,4472.00
2023-03-08T09:54:20.755Z,4600.00
2023-03-08T09:55:20.778Z,4500.00
2023-03-08T09:56:20.662Z,4364.00
2023-03-08T09:57:20.699Z,4608.00
2023-03-08T09:58:20.642Z,4724.00
2023-03-08T09:59:20.656Z,4852.00
2023-03-08T10:00:20.635Z,5112.00
2023-03-08T10:01:20.651Z,4984.00
2023-03-08T10:02:20.597Z,4912.00
2023-03-08T10:03:20.620Z,4756.00
2023-03-08T10:04:20.696Z,4744.00
2023-03-08T10:05:20.589Z,4732.00
2023-03-08T10:06:20.598Z,4832.00
2023-03-08T10:07:20.578Z,5048.00
2023-03-08T10:08:20.528Z,4952.00
2023-03-08T10:09:20.550Z,4816.00
2023-03-08T10:10:23.372Z,4912.00
2023-03-08T10:11:20.537Z,5220.00
2023-03-08T10:12:20.500Z,5260.00
2023-03-08T10:13:20.489Z,5112.00
2023-03-08T10:14:20.467Z,4764.00
2023-03-08T10:15:20.478Z,4700.00
2023-03-08T10:16:20.773Z,4732.00
2023-03-08T10:17:20.444Z,4620.00
2023-03-08T10:18:20.418Z,4604.00
2023-03-08T10:19:20.429Z,4528.00
2023-03-08T10:20:20.409Z,4652.00
2023-03-08T10:21:20.401Z,4804.00
2023-03-08T10:22:20.355Z,4740.00
2023-03-08T10:23:20.406Z,4792.00
2023-03-08T10:24:20.345Z,4628.00
2023-03-08T10:25:20.438Z,4752.00
2023-03-08T10:26:20.360Z,4880.00
2023-03-08T10:27:20.335Z,4980.00
2023-03-08T10:28:20.300Z,5492.00
2023-03-08T10:29:20.349Z,5324.00
2023-03-08T10:30:20.458Z,5796.00
2023-03-08T10:31:20.298Z,6504.00
2023-03-08T10:32:20.285Z,7028.00
2023-03-08T10:33:20.305Z,7248.00
2023-03-08T10:34:20.228Z,6580.00
2023-03-08T10:35:20.240Z,6216.00
2023-03-08T10:36:20.225Z,5300.00
2023-03-08T10:37:20.234Z,4752.00
2023-03-08T10:38:20.204Z,4276.00
2023-03-08T10:39:20.212Z,3720.00
2023-03-08T10:40:20.173Z,3360.00
2023-03-08T10:41:20.180Z,3244.00
2023-03-08T10:42:20.224Z,3012.00
2023-03-08T10:43:20.259Z,2712.00
2023-03-08T10:44:22.391Z,2772.00
2023-03-08T10:45:20.108Z,2672.00
2023-03-08T10:46:20.134Z,2516.00
2023-03-08T10:47:20.100Z,2488.00
2023-03-08T10:48:20.067Z,2644.00
2023-03-08T10:49:20.097Z,2956.00
2023-03-08T10:50:20.291Z,3092.00
2023-03-08T10:51:20.050Z,3076.00
2023-03-08T10:52:20.019Z,2840.00
2023-03-08T10:53:20.047Z,2944.00
2023-03-08T10:54:20.020Z,3048.00
2023-03-08T10:55:20.008Z,3260.00
2023-03-08T10:56:20.120Z,3784.00
2023-03-08T10:57:19.992Z,4408.00
2023-03-08T10:58:19.948Z,4884.00
2023-03-08T10:59:19.971Z,4908.00
2023-03-08T11:00:19.948Z,5212.00
2023-03-08T11:01:19.940Z,5600.00
2023-03-08T11:02:19.899Z,5888.00
2023-03-08T11:03:20.176Z,6276.00
2023-03-08T11:04:19.919Z,5904.00
2023-03-08T11:05:19.888Z,5452.00
2023-03-08T11:06:19.900Z,5208.00
2023-03-08T11:07:19.899Z,5116.00
2023-03-08T11:08:19.876Z,5088.00
2023-03-08T11:09:19.860Z,5012.00
2023-03-08T11:10:19.998Z,5200.00
2023-03-08T11:11:19.839Z,5168.00
2023-03-08T11:12:19.829Z,5296.00
2023-03-08T11:13:19.860Z,5340.00
2023-03-08T11:14:19.869Z,5028.00
2023-03-08T11:15:20.066Z,5572.00
2023-03-08T11:16:19.828Z,5780.00
2023-03-08T11:17:19.755Z,5500.00
2023-03-08T11:18:19.727Z,5324.00
2023-03-08T11:19:19.865Z,5500.00
2023-03-08T11:20:19.714Z,5468.00
2023-03-08T11:21:19.733Z,5388.00
2023-03-08T11:22:19.675Z,5144.00
2023-03-08T11:23:19.704Z,4964.00
2023-03-08T11:24:19.722Z,5036.00
2023-03-08T11:25:19.683Z,4868.00
2023-03-08T11:26:19.654Z,4696.00
2023-03-08T11:27:19.664Z,4868.00
2023-03-08T11:28:19.614Z,4712.00
2023-03-08T11:29:19.637Z,4520.00
2023-03-08T11:30:19.615Z,4320.00
2023-03-08T11:31:19.620Z,4148.00
2023-03-08T11:32:19.661Z,4128.00
2023-03-08T11:33:19.859Z,4120.00
2023-03-08T11:34:19.550Z,4280.00
2023-03-08T11:35:19.560Z,4720.00
2023-03-08T11:36:19.554Z,5028.00
2023-03-08T11:37:19.564Z,5164.00
2023-03-08T11:38:19.502Z,5244.00
2023-03-08T11:39:19.543Z,5316.00
2023-03-08T11:40:19.508Z,5556.00
2023-03-08T11:41:19.498Z,5328.00
2023-03-08T11:42:19.476Z,5328.00
2023-03-08T11:43:19.487Z,5072.00
2023-03-08T11:44:19.464Z,4880.00
2023-03-08T11:45:19.519Z,5296.00
2023-03-08T11:46:19.455Z,6024.00
2023-03-08T11:47:19.415Z,6212.00
2023-03-08T11:48:19.413Z,5972.00
2023-03-08T11:49:19.413Z,5568.00
2023-03-08T11:50:19.388Z,5656.00
2023-03-08T11:51:19.393Z,5908.00
2023-03-08T11:52:19.461Z,5536.00
2023-03-08T11:53:19.402Z,5824.00
2023-03-08T11:54:19.355Z,5664.00
2023-03-08T11:55:19.451Z,5560.00
2023-03-08T11:56:19.343Z,5344.00
2023-03-08T11:57:19.331Z,5136.00
2023-03-08T11:58:19.281Z,4912.00
2023-03-08T11:59:19.309Z,4636.00
2023-03-08T12:00:19.301Z,4628.00
2023-03-08T12:01:19.334Z,4396.00
2023-03-08T12:02:19.288Z,4788.00
2023-03-08T12:03:19.342Z,4976.00
2023-03-08T12:04:19.337Z,4992.00
2023-03-08T12:05:19.311Z,5132.00
2023-03-08T12:06:28.270Z,5440.00
2023-03-08T12:07:20.309Z,5728.00
2023-03-08T12:08:19.267Z,5588.00
2023-03-08T12:09:19.174Z,5192.00
2023-03-08T12:10:19.159Z,5112.00
2023-03-08T12:11:19.252Z,5508.00
2023-03-08T12:12:19.138Z,6468.00
2023-03-08T12:13:19.190Z,4720.00
2023-03-08T12:14:19.110Z,4172.00
2023-03-08T12:15:19.197Z,4600.00
2023-03-08T12:16:19.248Z,5432.00
2023-03-08T12:17:19.206Z,5180.00
2023-03-08T12:18:19.090Z,4932.00
2023-03-08T12:19:19.276Z,4976.00
2023-03-08T12:20:19.067Z,4676.00
2023-03-08T12:21:19.064Z,5184.00
2023-03-08T12:22:18.997Z,5708.00
2023-03-08T12:23:19.130Z,6336.00
2023-03-08T12:24:19.595Z,6288.00
2023-03-08T12:25:19.221Z,6616.00
2023-03-08T12:26:19.250Z,6536.00
2023-03-08T12:27:19.233Z,5796.00
2023-03-08T12:28:18.958Z,5460.00
2023-03-08T12:29:18.978Z,5676.00
2023-03-08T12:30:19.025Z,5736.00
2023-03-08T12:31:27.585Z,5740.00
2023-03-08T12:32:20.008Z,5780.00
2023-03-08T12:33:19.158Z,5824.00
2023-03-08T12:34:18.868Z,6416.00
2023-03-08T12:35:18.908Z,5880.00
2023-03-08T12:36:19.034Z,5376.00
2023-03-08T12:37:19.121Z,5172.00
2023-03-08T12:38:18.892Z,5220.00
2023-03-08T12:39:18.886Z,4936.00
2023-03-08T12:40:18.818Z,4296.00
2023-03-08T12:41:18.841Z,3948.00